sensor_id;sensor_type;location;lat;lon;timestamp;P1;durP1;ratioP1;P2;durP2;ratioP2
13343;SDS011;6741;48.964;9.406;2022-07-23T00:01:10;7.10;;;6.30;;
13343;SDS011;6741;48.964;9.406;2022-07-23T00:03:37;9.93;;;7.03;;
13343;SDS011;6741;48.964;9.406;2022-07-23T00:06:04;9.10;;;6.40;;
13343;SDS011;6741;48.964;9.406;2022-07-23T00:08:31;6.97;;;6.38;;
13343;SDS011;6741;48.964;9.406;2022-07-23T00:11:00;6.78;;;6.15;;
13343;SDS011;6741;48.964;9.406;2022-07-23T00:13:27;7.45;;;5.88;;
13343;SDS011;6741;48.964;9.406;2022-07-23T00:15:54;7.63;;;6.63;;
13343;SDS011;6741;48.964;9.406;2022-07-23T00:18:21;6.63;;;6.03;;
13343;SDS011;6741;48.964;9.406;2022-07-23T00:20:48;7.20;;;5.95;;
13343;SDS011;6741;48.964;9.406;2022-07-23T00:23:16;5.97;;;5.47;;
13343;SDS011;6741;48.964;9.406;2022-07-23T00:25:43;5.43;;;4.93;;
13343;SDS011;6741;48.964;9.406;2022-07-23T00:28:11;6.10;;;4.95;;
13343;SDS011;6741;48.964;9.406;2022-07-23T00:30:38;5.43;;;4.93;;
13343;SDS011;6741;48.964;9.406;2022-07-23T00:33:06;6.07;;;5.40;;
13343;SDS011;6741;48.964;9.406;2022-07-23T00:35:34;5.60;;;5.10;;
13343;SDS011;6741;48.964;9.406;2022-07-23T00:38:02;5.32;;;4.82;;
13343;SDS011;6741;48.964;9.406;2022-07-23T00:40:30;5.45;;;4.95;;
13343;SDS011;6741;48.964;9.406;2022-07-23T00:42:57;5.43;;;4.95;;
13343;SDS011;6741;48.964;9.406;2022-07-23T00:45:26;6.03;;;5.20;;
13343;SDS011;6741;48.964;9.406;2022-07-23T00:47:53;5.70;;;5.20;;
13343;SDS011;6741;48.964;9.406;2022-07-23T00:50:20;5.07;;;4.68;;
13343;SDS011;6741;48.964;9.406;2022-07-23T00:52:47;4.95;;;4.55;;
13343;SDS011;6741;48.964;9.406;2022-07-23T00:55:14;5.15;;;4.63;;
13343;SDS011;6741;48.964;9.406;2022-07-23T00:57:41;5.60;;;5.10;;
13343;SDS011;6741;48.964;9.406;2022-07-23T01:00:09;6.43;;;4.38;;
13343;SDS011;6741;48.964;9.406;2022-07-23T01:02:39;4.88;;;4.47;;
13343;SDS011;6741;48.964;9.406;2022-07-23T01:05:06;4.80;;;4.40;;
13343;SDS011;6741;48.964;9.406;2022-07-23T01:07:34;5.30;;;4.63;;
13343;SDS011;6741;48.964;9.406;2022-07-23T01:10:02;4.57;;;4.18;;
13343;SDS011;6741;48.964;9.406;2022-07-23T01:12:50;5.22;;;4.72;;
13343;SDS011;6741;48.964;9.406;2022-07-23T01:15:17;5.47;;;4.97;;
13343;SDS011;6741;48.964;9.406;2022-07-23T01:17:45;5.47;;;4.97;;
13343;SDS011;6741;48.964;9.406;2022-07-23T01:20:12;5.57;;;5.18;;
13343;SDS011;6741;48.964;9.406;2022-07-23T01:22:41;4.82;;;4.40;;
13343;SDS011;6741;48.964;9.406;2022-07-23T01:25:08;4.70;;;4.35;;
13343;SDS011;6741;48.964;9.406;2022-07-23T01:27:35;6.57;;;4.78;;
13343;SDS011;6741;48.964;9.406;2022-07-23T01:30:02;5.47;;;5.07;;
13343;SDS011;6741;48.964;9.406;2022-07-23T01:32:30;4.85;;;4.45;;
13343;SDS011;6741;48.964;9.406;2022-07-23T01:34:57;4.55;;;4.22;;
13343;SDS011;6741;48.964;9.406;2022-07-23T01:37:24;4.90;;;4.38;;
13343;SDS011;6741;48.964;9.406;2022-07-23T01:39:52;4.95;;;4.55;;
13343;SDS011;6741;48.964;9.406;2022-07-23T01:42:19;5.13;;;4.72;;
13343;SDS011;6741;48.964;9.406;2022-07-23T01:44:46;7.20;;;4.90;;
13343;SDS011;6741;48.964;9.406;2022-07-23T01:47:13;5.20;;;4.78;;
13343;SDS011;6741;48.964;9.406;2022-07-23T01:49:40;5.35;;;4.85;;
13343;SDS011;6741;48.964;9.406;2022-07-23T01:52:07;5.45;;;5.00;;
13343;SDS011;6741;48.964;9.406;2022-07-23T01:54:36;6.05;;;5.55;;
13343;SDS011;6741;48.964;9.406;2022-07-23T01:57:05;6.22;;;5.60;;
13343;SDS011;6741;48.964;9.406;2022-07-23T01:59:33;6.05;;;5.55;;
13343;SDS011;6741;48.964;9.406;2022-07-23T02:02:00;6.22;;;5.72;;
13343;SDS011;6741;48.964;9.406;2022-07-23T02:04:28;6.05;;;5.45;;
13343;SDS011;6741;48.964;9.406;2022-07-23T02:06:55;5.68;;;5.18;;
13343;SDS011;6741;48.964;9.406;2022-07-23T02:09:22;5.07;;;4.57;;
13343;SDS011;6741;48.964;9.406;2022-07-23T02:11:49;5.43;;;4.93;;
13343;SDS011;6741;48.964;9.406;2022-07-23T02:14:17;5.45;;;4.95;;
13343;SDS011;6741;48.964;9.406;2022-07-23T02:16:44;7.30;;;4.60;;
13343;SDS011;6741;48.964;9.406;2022-07-23T02:19:15;5.13;;;4.60;;
13343;SDS011;6741;48.964;9.406;2022-07-23T02:21:41;12.73;;;5.15;;
13343;SDS011;6741;48.964;9.406;2022-07-23T02:24:08;5.53;;;5.07;;
13343;SDS011;6741;48.964;9.406;2022-07-23T02:26:35;4.30;;;3.95;;
13343;SDS011;6741;48.964;9.406;2022-07-23T02:29:02;4.68;;;4.30;;
13343;SDS011;6741;48.964;9.406;2022-07-23T02:31:31;4.20;;;3.90;;
13343;SDS011;6741;48.964;9.406;2022-07-23T02:33:58;5.20;;;4.68;;
13343;SDS011;6741;48.964;9.406;2022-07-23T02:36:25;4.43;;;4.13;;
13343;SDS011;6741;48.964;9.406;2022-07-23T02:38:53;5.57;;;5.05;;
13343;SDS011;6741;48.964;9.406;2022-07-23T02:41:19;4.97;;;4.50;;
13343;SDS011;6741;48.964;9.406;2022-07-23T02:43:46;4.20;;;3.80;;
13343;SDS011;6741;48.964;9.406;2022-07-23T02:46:13;5.18;;;4.43;;
13343;SDS011;6741;48.964;9.406;2022-07-23T02:48:41;5.05;;;4.55;;
13343;SDS011;6741;48.964;9.406;2022-07-23T02:51:08;5.13;;;4.63;;
13343;SDS011;6741;48.964;9.406;2022-07-23T02:53:35;5.35;;;4.85;;
13343;SDS011;6741;48.964;9.406;2022-07-23T02:56:02;4.50;;;4.10;;
13343;SDS011;6741;48.964;9.406;2022-07-23T02:58:29;4.80;;;4.40;;
13343;SDS011;6741;48.964;9.406;2022-07-23T03:00:56;5.13;;;4.20;;
13343;SDS011;6741;48.964;9.406;2022-07-23T03:03:23;5.78;;;4.82;;
13343;SDS011;6741;48.964;9.406;2022-07-23T03:05:51;5.15;;;4.75;;
13343;SDS011;6741;48.964;9.406;2022-07-23T03:08:18;4.63;;;4.22;;
13343;SDS011;6741;48.964;9.406;2022-07-23T03:10:45;4.45;;;4.05;;
13343;SDS011;6741;48.964;9.406;2022-07-23T03:13:12;4.63;;;4.32;;
13343;SDS011;6741;48.964;9.406;2022-07-23T03:15:39;5.53;;;5.03;;
13343;SDS011;6741;48.964;9.406;2022-07-23T03:18:06;4.68;;;4.28;;
13343;SDS011;6741;48.964;9.406;2022-07-23T03:20:33;4.78;;;4.38;;
13343;SDS011;6741;48.964;9.406;2022-07-23T03:23:01;4.88;;;4.47;;
13343;SDS011;6741;48.964;9.406;2022-07-23T03:25:28;5.90;;;5.00;;
13343;SDS011;6741;48.964;9.406;2022-07-23T03:27:55;5.10;;;4.60;;
13343;SDS011;6741;48.964;9.406;2022-07-23T03:30:22;4.70;;;4.38;;
13343;SDS011;6741;48.964;9.406;2022-07-23T03:32:49;5.25;;;4.75;;
13343;SDS011;6741;48.964;9.406;2022-07-23T03:35:16;4.78;;;4.38;;
13343;SDS011;6741;48.964;9.406;2022-07-23T03:37:43;5.38;;;4.90;;
13343;SDS011;6741;48.964;9.406;2022-07-23T03:40:11;5.05;;;4.65;;
13343;SDS011;6741;48.964;9.406;2022-07-23T03:42:38;4.97;;;4.53;;
13343;SDS011;6741;48.964;9.406;2022-07-23T03:45:07;5.75;;;4.85;;
13343;SDS011;6741;48.964;9.406;2022-07-23T03:47:35;5.18;;;4.65;;
13343;SDS011;6741;48.964;9.406;2022-07-23T03:50:02;5.18;;;4.68;;
13343;SDS011;6741;48.964;9.406;2022-07-23T03:52:29;5.10;;;4.68;;
13343;SDS011;6741;48.964;9.406;2022-07-23T03:54:56;5.63;;;4.68;;
13343;SDS011;6741;48.964;9.406;2022-07-23T03:57:25;4.80;;;4.40;;
13343;SDS011;6741;48.964;9.406;2022-07-23T03:59:52;5.30;;;4.80;;
13343;SDS011;6741;48.964;9.406;2022-07-23T04:02:18;5.82;;;4.78;;
13343;SDS011;6741;48.964;9.406;2022-07-23T04:04:45;5.85;;;5.35;;
13343;SDS011;6741;48.964;9.406;2022-07-23T04:07:12;6.00;;;5.32;;
13343;SDS011;6741;48.964;9.406;2022-07-23T04:09:39;4.93;;;4.53;;
13343;SDS011;6741;48.964;9.406;2022-07-23T04:12:07;5.35;;;4.60;;
13343;SDS011;6741;48.964;9.406;2022-07-23T04:14:35;4.80;;;4.40;;
13343;SDS011;6741;48.964;9.406;2022-07-23T04:17:02;5.65;;;5.22;;
13343;SDS011;6741;48.964;9.406;2022-07-23T04:19:29;7.18;;;4.90;;
13343;SDS011;6741;48.964;9.406;2022-07-23T04:21:56;5.55;;;5.05;;
13343;SDS011;6741;48.964;9.406;2022-07-23T04:24:23;7.03;;;5.43;;
13343;SDS011;6741;48.964;9.406;2022-07-23T04:26:50;5.03;;;4.53;;
13343;SDS011;6741;48.964;9.406;2022-07-23T04:29:18;5.85;;;5.40;;
13343;SDS011;6741;48.964;9.406;2022-07-23T04:31:46;5.65;;;5.15;;
13343;SDS011;6741;48.964;9.406;2022-07-23T04:34:13;5.13;;;4.72;;
13343;SDS011;6741;48.964;9.406;2022-07-23T04:36:40;5.32;;;4.93;;
13343;SDS011;6741;48.964;9.406;2022-07-23T04:39:07;5.90;;;5.40;;
13343;SDS011;6741;48.964;9.406;2022-07-23T04:41:34;5.82;;;5.13;;
13343;SDS011;6741;48.964;9.406;2022-07-23T04:44:01;6.70;;;5.97;;
13343;SDS011;6741;48.964;9.406;2022-07-23T04:46:28;6.32;;;5.72;;
13343;SDS011;6741;48.964;9.406;2022-07-23T04:48:57;6.70;;;6.00;;
13343;SDS011;6741;48.964;9.406;2022-07-23T04:51:24;6.13;;;5.53;;
13343;SDS011;6741;48.964;9.406;2022-07-23T04:53:54;5.85;;;5.43;;
13343;SDS011;6741;48.964;9.406;2022-07-23T04:56:21;7.57;;;5.68;;
13343;SDS011;6741;48.964;9.406;2022-07-23T04:58:48;6.10;;;5.50;;
13343;SDS011;6741;48.964;9.406;2022-07-23T05:01:16;6.45;;;5.85;;
13343;SDS011;6741;48.964;9.406;2022-07-23T05:03:43;6.82;;;5.72;;
13343;SDS011;6741;48.964;9.406;2022-07-23T05:06:11;7.95;;;5.53;;
13343;SDS011;6741;48.964;9.406;2022-07-23T05:08:38;6.70;;;5.93;;
13343;SDS011;6741;48.964;9.406;2022-07-23T05:11:05;6.35;;;5.55;;
13343;SDS011;6741;48.964;9.406;2022-07-23T05:13:32;8.10;;;5.25;;
13343;SDS011;6741;48.964;9.406;2022-07-23T05:15:58;6.20;;;5.70;;
13343;SDS011;6741;48.964;9.406;2022-07-23T05:18:25;6.78;;;5.53;;
13343;SDS011;6741;48.964;9.406;2022-07-23T05:20:52;5.78;;;5.25;;
13343;SDS011;6741;48.964;9.406;2022-07-23T05:23:20;7.15;;;5.50;;
13343;SDS011;6741;48.964;9.406;2022-07-23T05:25:47;5.63;;;5.13;;
13343;SDS011;6741;48.964;9.406;2022-07-23T05:28:15;6.20;;;5.70;;
13343;SDS011;6741;48.964;9.406;2022-07-23T05:30:42;5.75;;;5.25;;
13343;SDS011;6741;48.964;9.406;2022-07-23T05:33:08;5.40;;;5.00;;
13343;SDS011;6741;48.964;9.406;2022-07-23T05:35:35;5.55;;;5.15;;
13343;SDS011;6741;48.964;9.406;2022-07-23T05:38:02;5.30;;;4.80;;
13343;SDS011;6741;48.964;9.406;2022-07-23T05:40:31;5.82;;;5.32;;
13343;SDS011;6741;48.964;9.406;2022-07-23T05:42:58;5.78;;;5.22;;
13343;SDS011;6741;48.964;9.406;2022-07-23T05:45:25;5.60;;;5.10;;
13343;SDS011;6741;48.964;9.406;2022-07-23T05:47:51;5.57;;;5.18;;
13343;SDS011;6741;48.964;9.406;2022-07-23T05:50:18;5.28;;;4.88;;
13343;SDS011;6741;48.964;9.406;2022-07-23T05:52:45;5.90;;;5.40;;
13343;SDS011;6741;48.964;9.406;2022-07-23T05:55:13;5.57;;;5.18;;
13343;SDS011;6741;48.964;9.406;2022-07-23T05:57:41;6.03;;;5.57;;
13343;SDS011;6741;48.964;9.406;2022-07-23T06:00:09;6.90;;;5.80;;
13343;SDS011;6741;48.964;9.406;2022-07-23T06:02:37;5.70;;;5.20;;
13343;SDS011;6741;48.964;9.406;2022-07-23T06:05:05;6.35;;;5.85;;
13343;SDS011;6741;48.964;9.406;2022-07-23T06:07:34;6.20;;;5.70;;
13343;SDS011;6741;48.964;9.406;2022-07-23T06:10:01;6.45;;;5.80;;
13343;SDS011;6741;48.964;9.406;2022-07-23T06:12:29;6.80;;;6.00;;
13343;SDS011;6741;48.964;9.406;2022-07-23T06:14:58;5.93;;;5.53;;
13343;SDS011;6741;48.964;9.406;2022-07-23T06:17:25;7.43;;;6.75;;
13343;SDS011;6741;48.964;9.406;2022-07-23T06:19:52;6.97;;;6.30;;
13343;SDS011;6741;48.964;9.406;2022-07-23T06:22:19;7.18;;;6.22;;
13343;SDS011;6741;48.964;9.406;2022-07-23T06:24:46;7.15;;;6.55;;
13343;SDS011;6741;48.964;9.406;2022-07-23T06:27:13;7.13;;;6.43;;
13343;SDS011;6741;48.964;9.406;2022-07-23T06:29:40;7.35;;;6.63;;
13343;SDS011;6741;48.964;9.406;2022-07-23T06:32:08;8.57;;;7.03;;
13343;SDS011;6741;48.964;9.406;2022-07-23T06:34:35;9.77;;;6.85;;
13343;SDS011;6741;48.964;9.406;2022-07-23T06:37:02;7.78;;;7.18;;
13343;SDS011;6741;48.964;9.406;2022-07-23T06:39:29;8.93;;;7.63;;
13343;SDS011;6741;48.964;9.406;2022-07-23T06:41:56;8.43;;;7.32;;
13343;SDS011;6741;48.964;9.406;2022-07-23T06:44:23;8.00;;;7.30;;
13343;SDS011;6741;48.964;9.406;2022-07-23T06:46:50;8.98;;;8.02;;
13343;SDS011;6741;48.964;9.406;2022-07-23T06:49:19;8.68;;;7.82;;
13343;SDS011;6741;48.964;9.406;2022-07-23T06:51:46;8.40;;;7.70;;
13343;SDS011;6741;48.964;9.406;2022-07-23T06:54:13;10.32;;;8.15;;
13343;SDS011;6741;48.964;9.406;2022-07-23T06:56:40;8.73;;;7.38;;
13343;SDS011;6741;48.964;9.406;2022-07-23T06:59:08;8.57;;;7.78;;
13343;SDS011;6741;48.964;9.406;2022-07-23T07:01:35;9.73;;;8.80;;
13343;SDS011;6741;48.964;9.406;2022-07-23T07:04:02;8.82;;;7.90;;
13343;SDS011;6741;48.964;9.406;2022-07-23T07:06:31;9.50;;;8.55;;
13343;SDS011;6741;48.964;9.406;2022-07-23T07:08:57;8.77;;;7.82;;
13343;SDS011;6741;48.964;9.406;2022-07-23T07:11:24;9.95;;;8.52;;
13343;SDS011;6741;48.964;9.406;2022-07-23T07:13:51;9.95;;;8.45;;
13343;SDS011;6741;48.964;9.406;2022-07-23T07:16:19;9.20;;;8.40;;
13343;SDS011;6741;48.964;9.406;2022-07-23T07:18:45;10.07;;;8.52;;
13343;SDS011;6741;48.964;9.406;2022-07-23T07:21:12;11.60;;;8.90;;
13343;SDS011;6741;48.964;9.406;2022-07-23T07:23:41;9.60;;;8.70;;
13343;SDS011;6741;48.964;9.406;2022-07-23T07:26:08;10.02;;;9.07;;
13343;SDS011;6741;48.964;9.406;2022-07-23T07:28:35;10.95;;;9.82;;
13343;SDS011;6741;48.964;9.406;2022-07-23T07:31:02;11.68;;;10.32;;
13343;SDS011;6741;48.964;9.406;2022-07-23T07:33:29;11.13;;;9.95;;
13343;SDS011;6741;48.964;9.406;2022-07-23T07:35:56;10.68;;;9.57;;
13343;SDS011;6741;48.964;9.406;2022-07-23T07:38:23;11.88;;;10.68;;
13343;SDS011;6741;48.964;9.406;2022-07-23T07:40:52;11.60;;;10.50;;
13343;SDS011;6741;48.964;9.406;2022-07-23T07:43:20;12.35;;;11.05;;
13343;SDS011;6741;48.964;9.406;2022-07-23T07:45:47;13.15;;;11.73;;
13343;SDS011;6741;48.964;9.406;2022-07-23T07:48:14;12.73;;;11.40;;
13343;SDS011;6741;48.964;9.406;2022-07-23T07:50:41;15.05;;;11.23;;
13343;SDS011;6741;48.964;9.406;2022-07-23T07:53:08;13.82;;;11.73;;
13343;SDS011;6741;48.964;9.406;2022-07-23T07:55:35;11.32;;;10.23;;
13343;SDS011;6741;48.964;9.406;2022-07-23T07:58:03;11.55;;;9.57;;
13343;SDS011;6741;48.964;9.406;2022-07-23T08:00:31;11.88;;;10.52;;
13343;SDS011;6741;48.964;9.406;2022-07-23T08:03:01;10.90;;;9.85;;
13343;SDS011;6741;48.964;9.406;2022-07-23T08:05:28;10.95;;;9.88;;
13343;SDS011;6741;48.964;9.406;2022-07-23T08:07:57;11.05;;;9.95;;
13343;SDS011;6741;48.964;9.406;2022-07-23T08:10:26;9.82;;;8.88;;
13343;SDS011;6741;48.964;9.406;2022-07-23T08:12:54;10.40;;;9.50;;
13343;SDS011;6741;48.964;9.406;2022-07-23T08:15:24;10.55;;;9.55;;
13343;SDS011;6741;48.964;9.406;2022-07-23T08:17:52;10.25;;;8.95;;
13343;SDS011;6741;48.964;9.406;2022-07-23T08:20:20;11.60;;;10.60;;
13343;SDS011;6741;48.964;9.406;2022-07-23T08:22:49;12.85;;;11.65;;
13343;SDS011;6741;48.964;9.406;2022-07-23T08:25:19;11.50;;;10.30;;
13343;SDS011;6741;48.964;9.406;2022-07-23T08:27:47;15.45;;;10.68;;
13343;SDS011;6741;48.964;9.406;2022-07-23T08:30:15;11.25;;;10.23;;
13343;SDS011;6741;48.964;9.406;2022-07-23T08:32:51;11.27;;;10.05;;
13343;SDS011;6741;48.964;9.406;2022-07-23T08:35:27;13.45;;;10.35;;
13343;SDS011;6741;48.964;9.406;2022-07-23T08:37:55;14.38;;;10.27;;
13343;SDS011;6741;48.964;9.406;2022-07-23T08:40:24;11.10;;;10.10;;
13343;SDS011;6741;48.964;9.406;2022-07-23T08:42:52;11.45;;;10.25;;
13343;SDS011;6741;48.964;9.406;2022-07-23T08:45:21;11.48;;;10.38;;
13343;SDS011;6741;48.964;9.406;2022-07-23T08:47:52;10.32;;;9.35;;
13343;SDS011;6741;48.964;9.406;2022-07-23T08:50:19;11.60;;;10.20;;
13343;SDS011;6741;48.964;9.406;2022-07-23T08:52:48;10.63;;;9.63;;
13343;SDS011;6741;48.964;9.406;2022-07-23T08:55:16;10.45;;;9.55;;
13343;SDS011;6741;48.964;9.406;2022-07-23T08:57:43;10.43;;;9.50;;
13343;SDS011;6741;48.964;9.406;2022-07-23T09:00:10;9.57;;;8.75;;
13343;SDS011;6741;48.964;9.406;2022-07-23T09:02:39;9.32;;;8.48;;
13343;SDS011;6741;48.964;9.406;2022-07-23T09:05:09;9.73;;;8.82;;
13343;SDS011;6741;48.964;9.406;2022-07-23T09:07:37;9.68;;;8.77;;
13343;SDS011;6741;48.964;9.406;2022-07-23T09:10:06;9.43;;;8.43;;
13343;SDS011;6741;48.964;9.406;2022-07-23T09:12:34;10.25;;;9.25;;
13343;SDS011;6741;48.964;9.406;2022-07-23T09:15:07;10.23;;;9.15;;
13343;SDS011;6741;48.964;9.406;2022-07-23T09:17:38;9.85;;;8.77;;
13343;SDS011;6741;48.964;9.406;2022-07-23T09:20:11;8.52;;;7.13;;
13343;SDS011;6741;48.964;9.406;2022-07-23T09:22:43;8.27;;;7.47;;
13343;SDS011;6741;48.964;9.406;2022-07-23T09:25:12;9.38;;;8.48;;
13343;SDS011;6741;48.964;9.406;2022-07-23T09:27:48;7.97;;;7.38;;
13343;SDS011;6741;48.964;9.406;2022-07-23T09:30:18;8.48;;;7.35;;
13343;SDS011;6741;48.964;9.406;2022-07-23T09:35:49;8.23;;;7.53;;
13343;SDS011;6741;48.964;9.406;2022-07-23T09:38:18;8.18;;;7.45;;
13343;SDS011;6741;48.964;9.406;2022-07-23T09:40:46;9.00;;;7.85;;
13343;SDS011;6741;48.964;9.406;2022-07-23T09:43:30;7.88;;;7.18;;
13343;SDS011;6741;48.964;9.406;2022-07-23T09:48:43;7.60;;;6.95;;
13343;SDS011;6741;48.964;9.406;2022-07-23T09:51:11;8.10;;;6.20;;
13343;SDS011;6741;48.964;9.406;2022-07-23T09:53:38;9.65;;;6.97;;
13343;SDS011;6741;48.964;9.406;2022-07-23T09:56:05;7.22;;;6.63;;
13343;SDS011;6741;48.964;9.406;2022-07-23T09:58:34;8.27;;;7.57;;
13343;SDS011;6741;48.964;9.406;2022-07-23T10:01:09;7.68;;;6.95;;
13343;SDS011;6741;48.964;9.406;2022-07-23T10:03:37;8.75;;;7.75;;
13343;SDS011;6741;48.964;9.406;2022-07-23T10:06:05;8.18;;;7.43;;
13343;SDS011;6741;48.964;9.406;2022-07-23T10:08:35;7.35;;;6.75;;
13343;SDS011;6741;48.964;9.406;2022-07-23T10:11:06;7.07;;;6.50;;
13343;SDS011;6741;48.964;9.406;2022-07-23T10:13:34;8.40;;;7.50;;
13343;SDS011;6741;48.964;9.406;2022-07-23T10:16:21;7.15;;;6.55;;
13343;SDS011;6741;48.964;9.406;2022-07-23T10:18:48;6.75;;;6.15;;
13343;SDS011;6741;48.964;9.406;2022-07-23T10:21:17;7.03;;;6.43;;
13343;SDS011;6741;48.964;9.406;2022-07-23T10:23:57;6.82;;;6.22;;
13343;SDS011;6741;48.964;9.406;2022-07-23T10:26:41;8.18;;;7.28;;
13343;SDS011;6741;48.964;9.406;2022-07-23T10:29:19;7.25;;;6.55;;
13343;SDS011;6741;48.964;9.406;2022-07-23T10:31:54;6.57;;;6.03;;
13343;SDS011;6741;48.964;9.406;2022-07-23T10:34:30;7.30;;;6.70;;
13343;SDS011;6741;48.964;9.406;2022-07-23T10:37:07;6.10;;;5.70;;
13343;SDS011;6741;48.964;9.406;2022-07-23T10:39:41;7.05;;;6.45;;
13343;SDS011;6741;48.964;9.406;2022-07-23T10:42:09;6.70;;;6.20;;
13343;SDS011;6741;48.964;9.406;2022-07-23T10:44:40;6.10;;;5.60;;
13343;SDS011;6741;48.964;9.406;2022-07-23T10:47:09;5.95;;;5.45;;
13343;SDS011;6741;48.964;9.406;2022-07-23T10:49:59;5.30;;;4.82;;
13343;SDS011;6741;48.964;9.406;2022-07-23T10:52:43;5.72;;;5.32;;
13343;SDS011;6741;48.964;9.406;2022-07-23T10:55:44;5.15;;;4.75;;
13343;SDS011;6741;48.964;9.406;2022-07-23T10:58:20;5.25;;;4.85;;
13343;SDS011;6741;48.964;9.406;2022-07-23T11:01:11;5.30;;;4.90;;
13343;SDS011;6741;48.964;9.406;2022-07-23T11:03:59;5.25;;;4.85;;
13343;SDS011;6741;48.964;9.406;2022-07-23T11:09:26;5.68;;;4.90;;
13343;SDS011;6741;48.964;9.406;2022-07-23T11:15:02;5.55;;;4.75;;
13343;SDS011;6741;48.964;9.406;2022-07-23T11:17:32;5.70;;;5.20;;
13343;SDS011;6741;48.964;9.406;2022-07-23T11:20:13;6.03;;;4.60;;
13343;SDS011;6741;48.964;9.406;2022-07-23T11:22:47;5.20;;;4.80;;
13343;SDS011;6741;48.964;9.406;2022-07-23T11:25:28;5.20;;;4.80;;
13343;SDS011;6741;48.964;9.406;2022-07-23T11:28:07;5.15;;;4.75;;
13343;SDS011;6741;48.964;9.406;2022-07-23T11:30:40;5.10;;;4.72;;
13343;SDS011;6741;48.964;9.406;2022-07-23T11:33:16;5.30;;;4.82;;
13343;SDS011;6741;48.964;9.406;2022-07-23T11:35:44;4.88;;;4.47;;
13343;SDS011;6741;48.964;9.406;2022-07-23T11:38:14;4.70;;;4.30;;
13343;SDS011;6741;48.964;9.406;2022-07-23T11:40:44;4.97;;;4.50;;
13343;SDS011;6741;48.964;9.406;2022-07-23T11:43:12;5.07;;;4.68;;
13343;SDS011;6741;48.964;9.406;2022-07-23T11:45:41;5.70;;;5.18;;
13343;SDS011;6741;48.964;9.406;2022-07-23T11:48:16;6.13;;;5.53;;
13343;SDS011;6741;48.964;9.406;2022-07-23T11:50:45;6.15;;;5.47;;
13343;SDS011;6741;48.964;9.406;2022-07-23T11:53:12;6.00;;;5.55;;
13343;SDS011;6741;48.964;9.406;2022-07-23T11:55:39;6.43;;;5.65;;
13343;SDS011;6741;48.964;9.406;2022-07-23T11:58:07;6.03;;;5.53;;
13343;SDS011;6741;48.964;9.406;2022-07-23T12:00:34;6.00;;;5.50;;
13343;SDS011;6741;48.964;9.406;2022-07-23T12:03:02;6.38;;;5.82;;
13343;SDS011;6741;48.964;9.406;2022-07-23T12:05:32;5.75;;;5.25;;
13343;SDS011;6741;48.964;9.406;2022-07-23T12:08:01;5.60;;;5.20;;
13343;SDS011;6741;48.964;9.406;2022-07-23T12:10:30;5.60;;;5.13;;
13343;SDS011;6741;48.964;9.406;2022-07-23T12:13:01;5.55;;;5.15;;
13343;SDS011;6741;48.964;9.406;2022-07-23T12:15:30;5.60;;;5.20;;
13343;SDS011;6741;48.964;9.406;2022-07-23T12:17:59;5.18;;;4.70;;
13343;SDS011;6741;48.964;9.406;2022-07-23T12:20:29;5.53;;;5.13;;
13343;SDS011;6741;48.964;9.406;2022-07-23T12:22:58;5.45;;;5.05;;
13343;SDS011;6741;48.964;9.406;2022-07-23T12:25:27;6.32;;;5.72;;
13343;SDS011;6741;48.964;9.406;2022-07-23T12:27:59;5.63;;;5.22;;
13343;SDS011;6741;48.964;9.406;2022-07-23T12:30:28;5.70;;;5.20;;
13343;SDS011;6741;48.964;9.406;2022-07-23T12:32:57;5.80;;;5.32;;
13343;SDS011;6741;48.964;9.406;2022-07-23T12:35:31;5.35;;;4.95;;
13343;SDS011;6741;48.964;9.406;2022-07-23T12:38:04;6.45;;;5.95;;
13343;SDS011;6741;48.964;9.406;2022-07-23T12:40:35;6.15;;;5.55;;
13343;SDS011;6741;48.964;9.406;2022-07-23T12:43:04;6.68;;;6.18;;
13343;SDS011;6741;48.964;9.406;2022-07-23T12:45:42;7.07;;;6.32;;
13343;SDS011;6741;48.964;9.406;2022-07-23T12:48:18;4.97;;;4.57;;
13343;SDS011;6741;48.964;9.406;2022-07-23T12:50:52;5.13;;;4.68;;
13343;SDS011;6741;48.964;9.406;2022-07-23T12:53:21;5.60;;;5.20;;
13343;SDS011;6741;48.964;9.406;2022-07-23T12:55:50;5.05;;;4.65;;
13343;SDS011;6741;48.964;9.406;2022-07-23T12:58:24;5.68;;;5.28;;
13343;SDS011;6741;48.964;9.406;2022-07-23T13:00:55;6.32;;;5.82;;
13343;SDS011;6741;48.964;9.406;2022-07-23T13:03:28;5.70;;;5.20;;
13343;SDS011;6741;48.964;9.406;2022-07-23T13:05:58;5.72;;;5.32;;
13343;SDS011;6741;48.964;9.406;2022-07-23T13:08:27;6.43;;;5.88;;
13343;SDS011;6741;48.964;9.406;2022-07-23T13:10:55;6.40;;;5.90;;
13343;SDS011;6741;48.964;9.406;2022-07-23T13:13:23;6.35;;;5.38;;
13343;SDS011;6741;48.964;9.406;2022-07-23T13:15:51;6.03;;;5.53;;
13343;SDS011;6741;48.964;9.406;2022-07-23T13:18:19;5.93;;;5.47;;
13343;SDS011;6741;48.964;9.406;2022-07-23T13:20:47;5.75;;;5.35;;
13343;SDS011;6741;48.964;9.406;2022-07-23T13:23:16;5.75;;;5.35;;
13343;SDS011;6741;48.964;9.406;2022-07-23T13:25:43;6.55;;;5.97;;
13343;SDS011;6741;48.964;9.406;2022-07-23T13:28:11;6.32;;;5.82;;
13343;SDS011;6741;48.964;9.406;2022-07-23T13:30:39;6.30;;;5.70;;
13343;SDS011;6741;48.964;9.406;2022-07-23T13:33:06;6.40;;;5.70;;
13343;SDS011;6741;48.964;9.406;2022-07-23T13:35:34;6.35;;;5.75;;
13343;SDS011;6741;48.964;9.406;2022-07-23T13:38:02;6.07;;;5.57;;
13343;SDS011;6741;48.964;9.406;2022-07-23T13:40:34;6.97;;;5.82;;
13343;SDS011;6741;48.964;9.406;2022-07-23T13:43:04;6.18;;;5.68;;
13343;SDS011;6741;48.964;9.406;2022-07-23T13:45:32;6.15;;;5.65;;
13343;SDS011;6741;48.964;9.406;2022-07-23T13:47:59;6.72;;;6.15;;
13343;SDS011;6741;48.964;9.406;2022-07-23T13:50:25;7.05;;;6.30;;
13343;SDS011;6741;48.964;9.406;2022-07-23T13:52:52;7.15;;;6.32;;
13343;SDS011;6741;48.964;9.406;2022-07-23T13:55:20;7.32;;;6.60;;
13343;SDS011;6741;48.964;9.406;2022-07-23T13:57:48;6.55;;;5.95;;
13343;SDS011;6741;48.964;9.406;2022-07-23T14:00:15;6.47;;;5.88;;
13343;SDS011;6741;48.964;9.406;2022-07-23T14:02:42;6.93;;;6.32;;
13343;SDS011;6741;48.964;9.406;2022-07-23T14:05:10;6.20;;;5.70;;
13343;SDS011;6741;48.964;9.406;2022-07-23T14:07:37;5.65;;;5.25;;
13343;SDS011;6741;48.964;9.406;2022-07-23T14:10:05;6.47;;;5.88;;
13343;SDS011;6741;48.964;9.406;2022-07-23T14:12:34;5.97;;;5.40;;
13343;SDS011;6741;48.964;9.406;2022-07-23T14:15:03;6.70;;;6.13;;
13343;SDS011;6741;48.964;9.406;2022-07-23T14:17:30;5.90;;;5.40;;
13343;SDS011;6741;48.964;9.406;2022-07-23T14:19:58;6.22;;;5.65;;
13343;SDS011;6741;48.964;9.406;2022-07-23T14:22:25;6.18;;;5.68;;
13343;SDS011;6741;48.964;9.406;2022-07-23T14:24:52;6.55;;;5.60;;
13343;SDS011;6741;48.964;9.406;2022-07-23T14:27:19;5.25;;;4.85;;
13343;SDS011;6741;48.964;9.406;2022-07-23T14:29:46;6.30;;;5.80;;
13343;SDS011;6741;48.964;9.406;2022-07-23T14:32:15;5.32;;;4.93;;
13343;SDS011;6741;48.964;9.406;2022-07-23T14:34:42;6.10;;;5.50;;
13343;SDS011;6741;48.964;9.406;2022-07-23T14:37:09;6.03;;;5.43;;
13343;SDS011;6741;48.964;9.406;2022-07-23T14:39:36;6.05;;;5.55;;
13343;SDS011;6741;48.964;9.406;2022-07-23T14:42:04;5.78;;;5.28;;
13343;SDS011;6741;48.964;9.406;2022-07-23T14:44:31;6.03;;;5.53;;
13343;SDS011;6741;48.964;9.406;2022-07-23T14:46:58;6.43;;;5.88;;
13343;SDS011;6741;48.964;9.406;2022-07-23T14:49:27;6.25;;;5.63;;
13343;SDS011;6741;48.964;9.406;2022-07-23T14:51:54;6.15;;;5.65;;
13343;SDS011;6741;48.964;9.406;2022-07-23T14:54:21;6.93;;;6.05;;
13343;SDS011;6741;48.964;9.406;2022-07-23T14:56:48;6.28;;;5.68;;
13343;SDS011;6741;48.964;9.406;2022-07-23T14:59:15;6.75;;;6.10;;
13343;SDS011;6741;48.964;9.406;2022-07-23T15:01:42;8.18;;;7.40;;
13343;SDS011;6741;48.964;9.406;2022-07-23T15:04:09;6.82;;;6.22;;
13343;SDS011;6741;48.964;9.406;2022-07-23T15:06:37;7.05;;;6.35;;
13343;SDS011;6741;48.964;9.406;2022-07-23T15:09:04;7.28;;;6.60;;
13343;SDS011;6741;48.964;9.406;2022-07-23T15:11:31;6.65;;;6.05;;
13343;SDS011;6741;48.964;9.406;2022-07-23T15:13:59;6.93;;;6.32;;
13343;SDS011;6741;48.964;9.406;2022-07-23T15:16:26;6.72;;;6.07;;
13343;SDS011;6741;48.964;9.406;2022-07-23T15:18:54;6.93;;;6.25;;